Big Bear Station Historical Data
Daily Summary for August 10, 2017 Units:  English    Metric   Both
« Previous Day
Next Day »
Daily Weekly Monthly Yearly Custom
  High: Low: Average:
Temperature: 87.3 °F 46.2 °F 65.5 °F
Dew Point: 49.1 °F 6.7 °F 38 °F
Humidity: 76 % 7 % 43 %
Wind Speed: 8.3 mph 0.0 mph 1.8 mph
Wind Gust: -999.0 mph - -
Wind:- - SW
Pressure: 30.29 in 30.24 in -
Precipitation: 0.00 in    
Historical Graphs
 
 
Tabular Data for August 10, 2017
Time Temperature Dew Point Pressure Wind Wind Speed Wind Gust Humidity Rainfall Rate (Hourly)
00:14 50.7 °F 36.5 °F 30.25 in Calm   -999.0 mph 58 % 0 in
00:29 50.4 °F 35.7 °F 30.25 in South 1.7 mph -999.0 mph 57 % 0 in
00:45 49.8 °F 29.3 °F 30.25 in South 1.7 mph -999.0 mph 45 % 0 in
01:00 49.3 °F 26.0 °F 30.24 in South 1.7 mph -999.0 mph 40 % 0 in
01:15 49.1 °F 28.1 °F 30.24 in SSE 1.1 mph -999.0 mph 44 % 0 in
01:30 48.7 °F 32.8 °F 30.24 in SE 2.2 mph -999.0 mph 54 % 0 in
01:45 48.0 °F 28.7 °F 30.25 in Calm   -999.0 mph 47 % 0 in
02:01 47.7 °F 27.9 °F 30.24 in Calm   -999.0 mph 46 % 0 in
02:16 47.3 °F 30.1 °F 30.25 in Calm   -999.0 mph 51 % 0 in
02:31 47.1 °F 32.2 °F 30.25 in Calm   -999.0 mph 56 % 0 in
02:46 47.1 °F 35.9 °F 30.25 in Calm   -999.0 mph 65 % 0 in
03:01 46.8 °F 36.8 °F 30.25 in Calm   -999.0 mph 68 % 0 in
03:17 46.6 °F 37.3 °F 30.25 in Calm   -999.0 mph 70 % 0 in
03:32 46.6 °F 37.7 °F 30.25 in South 2.2 mph -999.0 mph 71 % 0 in
03:47 46.4 °F 37.5 °F 30.24 in SSE 1.1 mph -999.0 mph 71 % 0 in
04:03 46.2 °F 33.9 °F 30.25 in SSE 2.2 mph -999.0 mph 62 % 0 in
04:18 46.2 °F 33.9 °F 30.25 in Calm   -999.0 mph 62 % 0 in
04:33 46.2 °F 34.3 °F 30.24 in Calm   -999.0 mph 63 % 0 in
04:48 46.6 °F 35.5 °F 30.24 in South 1.7 mph -999.0 mph 65 % 0 in
05:03 46.4 °F 37.1 °F 30.24 in Calm   -999.0 mph 70 % 0 in
05:19 46.6 °F 38.1 °F 30.24 in South 2.2 mph -999.0 mph 72 % 0 in
05:34 46.6 °F 38.4 °F 30.25 in SE 1.7 mph -999.0 mph 73 % 0 in
05:49 46.9 °F 38.7 °F 30.25 in Calm   -999.0 mph 73 % 0 in
06:04 46.6 °F 38.8 °F 30.25 in Calm   -999.0 mph 74 % 0 in
06:19 46.6 °F 37.3 °F 30.25 in SSE 1.7 mph -999.0 mph 70 % 0 in
06:35 47.1 °F 37.5 °F 30.26 in Calm   -999.0 mph 69 % 0 in
06:50 47.1 °F 38.5 °F 30.26 in Calm   -999.0 mph 72 % 0 in
07:05 47.7 °F 39.5 °F 30.26 in Calm   -999.0 mph 73 % 0 in
07:20 47.5 °F 40.0 °F 30.26 in Calm   -999.0 mph 75 % 0 in
07:36 48.4 °F 41.2 °F 30.26 in Calm   -999.0 mph 76 % 0 in
07:51 49.8 °F 42.2 °F 30.26 in SSE 1.7 mph -999.0 mph 75 % 0 in
08:06 51.1 °F 43.1 °F 30.27 in Calm   -999.0 mph 74 % 0 in
08:22 54.1 °F 42.6 °F 30.27 in Calm   -999.0 mph 65 % 0 in
08:37 56.3 °F 44.7 °F 30.27 in West 1.7 mph -999.0 mph 65 % 0 in
08:52 63.0 °F 17.5 °F 30.27 in Calm   -999.0 mph 17 % 0 in
09:07 67.8 °F 13.3 °F 30.27 in SW 2.2 mph -999.0 mph 12 % 0 in
09:23 70.2 °F 17.0 °F 30.27 in SSW 1.1 mph -999.0 mph 13 % 0 in
09:38 72.0 °F 14.6 °F 30.27 in SSE 2.7 mph -999.0 mph 11 % 0 in
09:53 73.0 °F 8.2 °F 30.27 in SSW 2.2 mph -999.0 mph 8 % 0 in
10:08 74.8 °F 9.5 °F 30.27 in South 4.2 mph -999.0 mph 8 % 0 in
10:23 75.0 °F 6.7 °F 30.28 in South 4.2 mph -999.0 mph 7 % 0 in
10:39 75.6 °F 10.1 °F 30.28 in West 2.7 mph -999.0 mph 8 % 0 in
10:54 76.8 °F 11.0 °F 30.28 in ENE 8.3 mph -999.0 mph 8 % 0 in
11:09 78.6 °F 23.6 °F 30.28 in WSW 2.2 mph -999.0 mph 13 % 0 in
11:24 79.7 °F 24.5 °F 30.28 in North 3.2 mph -999.0 mph 13 % 0 in
11:39 80.8 °F 25.4 °F 30.28 in SW 3.2 mph -999.0 mph 13 % 0 in
11:55 81.1 °F 30.7 °F 30.28 in NW 4.7 mph -999.0 mph 16 % 0 in
12:25 82.8 °F 33.5 °F 30.28 in NNW 7.3 mph -999.0 mph 17 % 0 in
12:41 82.8 °F 38.9 °F 30.28 in NNW 5.8 mph -999.0 mph 21 % 0 in
12:56 83.3 °F 40.5 °F 30.28 in NW 4.2 mph -999.0 mph 22 % 0 in
13:11 82.8 °F 43.4 °F 30.28 in NNW 2.2 mph -999.0 mph 25 % 0 in
13:27 83.7 °F 44.2 °F 30.28 in WNW 6.3 mph -999.0 mph 25 % 0 in
13:42 83.5 °F 42.9 °F 30.29 in South 6.3 mph -999.0 mph 24 % 0 in
13:57 84.0 °F 46.4 °F 30.28 in NNW 4.7 mph -999.0 mph 27 % 0 in
14:13 84.2 °F 44.6 °F 30.28 in SSE 2.2 mph -999.0 mph 25 % 0 in
14:28 84.6 °F 43.8 °F 30.28 in SW 3.2 mph -999.0 mph 24 % 0 in
14:43 82.9 °F 44.5 °F 30.28 in ENE 3.2 mph -999.0 mph 26 % 0 in
14:58 81.9 °F 42.6 °F 30.28 in SSE 4.7 mph -999.0 mph 25 % 0 in
15:14 82.4 °F 40.9 °F 30.27 in WSW 2.7 mph -999.0 mph 23 % 0 in
15:29 82.8 °F 41.2 °F 30.27 in SSW 3.2 mph -999.0 mph 23 % 0 in
15:44 82.6 °F 41.1 °F 30.27 in SW 2.2 mph -999.0 mph 23 % 0 in
15:59 82.4 °F 46.0 °F 30.26 in NNW 3.2 mph -999.0 mph 28 % 0 in
16:15 82.0 °F 46.6 °F 30.26 in NW 3.2 mph -999.0 mph 29 % 0 in
16:30 82.0 °F 46.6 °F 30.26 in NNW 3.7 mph -999.0 mph 29 % 0 in
16:46 81.1 °F 44.9 °F 30.26 in North 3.2 mph -999.0 mph 28 % 0 in
17:01 83.5 °F 46.0 °F 30.26 in South 3.2 mph -999.0 mph 27 % 0 in
17:17 87.3 °F 47.2 °F 30.26 in NNW 3.7 mph -999.0 mph 25 % 0 in
17:32 85.1 °F 46.4 °F 30.25 in NNE 2.2 mph -999.0 mph 26 % 0 in
17:47 84.4 °F 46.8 °F 30.25 in SSW 1.7 mph -999.0 mph 27 % 0 in
18:02 83.5 °F 45.0 °F 30.25 in South 4.2 mph -999.0 mph 26 % 0 in
18:17 83.1 °F 43.6 °F 30.25 in South 2.2 mph -999.0 mph 25 % 0 in
18:33 83.3 °F 43.8 °F 30.25 in South 1.7 mph -999.0 mph 25 % 0 in
18:48 78.4 °F 44.4 °F 30.25 in Calm   -999.0 mph 30 % 0 in
19:03 75.4 °F 46.6 °F 30.25 in SSW 1.7 mph -999.0 mph 36 % 0 in
19:18 74.3 °F 49.1 °F 30.25 in Calm   -999.0 mph 41 % 0 in
19:33 72.3 °F 47.3 °F 30.25 in Calm   -999.0 mph 41 % 0 in
19:49 71.1 °F 48.1 °F 30.25 in Calm   -999.0 mph 44 % 0 in
20:04 69.8 °F 47.5 °F 30.25 in ESE 1.7 mph -999.0 mph 45 % 0 in
20:19 69.1 °F 46.9 °F 30.25 in Calm   -999.0 mph 45 % 0 in
20:34 67.8 °F 46.3 °F 30.26 in Calm   -999.0 mph 46 % 0 in
20:49 66.9 °F 47.1 °F 30.26 in Calm   -999.0 mph 49 % 0 in
21:05 65.8 °F 47.2 °F 30.26 in South 1.7 mph -999.0 mph 51 % 0 in
21:20 65.1 °F 47.5 °F 30.27 in SSW 1.1 mph -999.0 mph 53 % 0 in
21:35 64.4 °F 48.4 °F 30.27 in Calm   -999.0 mph 56 % 0 in
21:50 64.2 °F 47.7 °F 30.27 in Calm   -999.0 mph 55 % 0 in
22:06 63.9 °F 47.9 °F 30.27 in Calm   -999.0 mph 56 % 0 in
22:21 63.1 °F 48.1 °F 30.27 in Calm   -999.0 mph 58 % 0 in
22:36 63.1 °F 48.5 °F 30.27 in Calm   -999.0 mph 59 % 0 in
22:51 62.6 °F 48.1 °F 30.27 in Calm   -999.0 mph 59 % 0 in
23:06 62.2 °F 48.1 °F 30.27 in Calm   -999.0 mph 60 % 0 in
23:22 62.4 °F 48.3 °F 30.27 in SW 1.7 mph -999.0 mph 60 % 0 in
23:37 62.2 °F 48.1 °F 30.27 in SSW 2.2 mph -999.0 mph 60 % 0 in
23:52 62.1 °F 47.6 °F 30.27 in Calm   -999.0 mph 59 % 0 in
Big Bear CA Weather
Compliments of Weather Underground - 1.5 mb